sensor_id;sensor_type;location;lat;lon;timestamp;P1;durP1;ratioP1;P2;durP2;ratioP2
26750;SDS011;14345;48.272;25.926;2023-10-31T00:02:21;19.27;;;8.60;;
26750;SDS011;14345;48.272;25.926;2023-10-31T00:04:47;15.13;;;8.95;;
26750;SDS011;14345;48.272;25.926;2023-10-31T00:07:13;15.43;;;8.48;;
26750;SDS011;14345;48.272;25.926;2023-10-31T00:09:39;15.27;;;8.65;;
26750;SDS011;14345;48.272;25.926;2023-10-31T00:12:06;18.98;;;9.27;;
26750;SDS011;14345;48.272;25.926;2023-10-31T00:14:32;17.25;;;9.40;;
26750;SDS011;14345;48.272;25.926;2023-10-31T00:16:58;15.73;;;9.13;;
26750;SDS011;14345;48.272;25.926;2023-10-31T00:19:24;17.13;;;8.65;;
26750;SDS011;14345;48.272;25.926;2023-10-31T00:21:50;16.38;;;8.45;;
26750;SDS011;14345;48.272;25.926;2023-10-31T00:24:16;14.05;;;8.63;;
26750;SDS011;14345;48.272;25.926;2023-10-31T00:26:42;14.93;;;8.65;;
26750;SDS011;14345;48.272;25.926;2023-10-31T00:29:08;13.23;;;8.38;;
26750;SDS011;14345;48.272;25.926;2023-10-31T00:31:34;13.57;;;8.32;;
26750;SDS011;14345;48.272;25.926;2023-10-31T00:34:01;19.73;;;8.85;;
26750;SDS011;14345;48.272;25.926;2023-10-31T00:36:27;14.77;;;8.77;;
26750;SDS011;14345;48.272;25.926;2023-10-31T00:38:53;16.55;;;8.85;;
26750;SDS011;14345;48.272;25.926;2023-10-31T00:41:19;13.75;;;8.13;;
26750;SDS011;14345;48.272;25.926;2023-10-31T00:43:45;18.13;;;10.02;;
26750;SDS011;14345;48.272;25.926;2023-10-31T00:46:11;16.02;;;8.50;;
26750;SDS011;14345;48.272;25.926;2023-10-31T00:48:37;15.93;;;8.80;;
26750;SDS011;14345;48.272;25.926;2023-10-31T00:51:03;14.80;;;8.20;;
26750;SDS011;14345;48.272;25.926;2023-10-31T00:53:30;12.85;;;7.68;;
26750;SDS011;14345;48.272;25.926;2023-10-31T00:55:56;14.80;;;8.43;;
26750;SDS011;14345;48.272;25.926;2023-10-31T00:58:22;15.00;;;7.93;;
26750;SDS011;14345;48.272;25.926;2023-10-31T01:00:48;13.50;;;7.85;;
26750;SDS011;14345;48.272;25.926;2023-10-31T01:03:14;12.30;;;7.18;;
26750;SDS011;14345;48.272;25.926;2023-10-31T01:05:40;14.15;;;7.10;;
26750;SDS011;14345;48.272;25.926;2023-10-31T01:08:06;12.40;;;7.30;;
26750;SDS011;14345;48.272;25.926;2023-10-31T01:10:32;12.80;;;6.90;;
26750;SDS011;14345;48.272;25.926;2023-10-31T01:12:58;12.70;;;6.95;;
26750;SDS011;14345;48.272;25.926;2023-10-31T01:15:24;17.63;;;7.93;;
26750;SDS011;14345;48.272;25.926;2023-10-31T01:17:50;13.05;;;7.68;;
26750;SDS011;14345;48.272;25.926;2023-10-31T01:20:16;13.60;;;6.97;;
26750;SDS011;14345;48.272;25.926;2023-10-31T01:22:42;13.93;;;8.18;;
26750;SDS011;14345;48.272;25.926;2023-10-31T01:25:08;15.45;;;7.95;;
26750;SDS011;14345;48.272;25.926;2023-10-31T01:27:35;13.48;;;7.55;;
26750;SDS011;14345;48.272;25.926;2023-10-31T01:30:01;14.13;;;7.93;;
26750;SDS011;14345;48.272;25.926;2023-10-31T01:32:28;14.13;;;8.18;;
26750;SDS011;14345;48.272;25.926;2023-10-31T01:34:54;13.48;;;7.53;;
26750;SDS011;14345;48.272;25.926;2023-10-31T01:37:20;14.57;;;7.78;;
26750;SDS011;14345;48.272;25.926;2023-10-31T01:39:46;14.48;;;8.23;;
26750;SDS011;14345;48.272;25.926;2023-10-31T01:42:14;15.32;;;8.38;;
26750;SDS011;14345;48.272;25.926;2023-10-31T01:44:40;17.17;;;9.15;;
26750;SDS011;14345;48.272;25.926;2023-10-31T01:47:06;15.88;;;8.90;;
26750;SDS011;14345;48.272;25.926;2023-10-31T01:49:32;19.17;;;9.93;;
26750;SDS011;14345;48.272;25.926;2023-10-31T01:52:01;17.98;;;9.45;;
26750;SDS011;14345;48.272;25.926;2023-10-31T01:54:27;14.50;;;9.52;;
26750;SDS011;14345;48.272;25.926;2023-10-31T01:56:54;15.45;;;9.27;;
26750;SDS011;14345;48.272;25.926;2023-10-31T01:59:23;19.70;;;10.52;;
26750;SDS011;14345;48.272;25.926;2023-10-31T02:01:49;14.45;;;9.35;;
26750;SDS011;14345;48.272;25.926;2023-10-31T02:04:15;21.42;;;10.43;;
26750;SDS011;14345;48.272;25.926;2023-10-31T02:06:41;15.95;;;9.43;;
26750;SDS011;14345;48.272;25.926;2023-10-31T02:09:07;16.90;;;9.02;;
26750;SDS011;14345;48.272;25.926;2023-10-31T02:11:33;16.33;;;9.20;;
26750;SDS011;14345;48.272;25.926;2023-10-31T02:13:59;18.10;;;10.07;;
26750;SDS011;14345;48.272;25.926;2023-10-31T02:16:25;16.23;;;9.68;;
26750;SDS011;14345;48.272;25.926;2023-10-31T02:18:51;16.52;;;9.68;;
26750;SDS011;14345;48.272;25.926;2023-10-31T02:21:17;15.57;;;9.68;;
26750;SDS011;14345;48.272;25.926;2023-10-31T02:23:55;16.10;;;9.38;;
26750;SDS011;14345;48.272;25.926;2023-10-31T02:26:21;16.35;;;8.38;;
26750;SDS011;14345;48.272;25.926;2023-10-31T02:28:47;17.55;;;9.23;;
26750;SDS011;14345;48.272;25.926;2023-10-31T02:31:13;18.10;;;9.55;;
26750;SDS011;14345;48.272;25.926;2023-10-31T02:33:39;15.13;;;9.13;;
26750;SDS011;14345;48.272;25.926;2023-10-31T02:36:05;18.63;;;8.93;;
26750;SDS011;14345;48.272;25.926;2023-10-31T02:38:31;17.70;;;9.50;;
26750;SDS011;14345;48.272;25.926;2023-10-31T02:40:57;16.10;;;9.90;;
26750;SDS011;14345;48.272;25.926;2023-10-31T02:43:23;16.25;;;9.00;;
26750;SDS011;14345;48.272;25.926;2023-10-31T02:45:49;16.30;;;9.07;;
26750;SDS011;14345;48.272;25.926;2023-10-31T02:48:15;18.70;;;11.00;;
26750;SDS011;14345;48.272;25.926;2023-10-31T02:50:41;14.82;;;9.10;;
26750;SDS011;14345;48.272;25.926;2023-10-31T02:53:07;17.90;;;9.48;;
26750;SDS011;14345;48.272;25.926;2023-10-31T02:55:33;14.05;;;7.97;;
26750;SDS011;14345;48.272;25.926;2023-10-31T02:57:59;12.75;;;8.57;;
26750;SDS011;14345;48.272;25.926;2023-10-31T03:00:25;15.35;;;9.35;;
26750;SDS011;14345;48.272;25.926;2023-10-31T03:02:51;15.55;;;9.27;;
26750;SDS011;14345;48.272;25.926;2023-10-31T03:05:17;16.95;;;9.20;;
26750;SDS011;14345;48.272;25.926;2023-10-31T03:07:43;17.65;;;10.07;;
26750;SDS011;14345;48.272;25.926;2023-10-31T03:10:10;19.60;;;9.85;;
26750;SDS011;14345;48.272;25.926;2023-10-31T03:12:36;15.02;;;8.65;;
26750;SDS011;14345;48.272;25.926;2023-10-31T03:15:02;16.50;;;9.75;;
26750;SDS011;14345;48.272;25.926;2023-10-31T03:17:31;17.40;;;10.23;;
26750;SDS011;14345;48.272;25.926;2023-10-31T03:19:57;18.00;;;10.20;;
26750;SDS011;14345;48.272;25.926;2023-10-31T03:22:23;17.00;;;10.07;;
26750;SDS011;14345;48.272;25.926;2023-10-31T03:24:49;15.65;;;9.20;;
26750;SDS011;14345;48.272;25.926;2023-10-31T03:27:15;18.02;;;9.30;;
26750;SDS011;14345;48.272;25.926;2023-10-31T03:29:41;14.20;;;8.48;;
26750;SDS011;14345;48.272;25.926;2023-10-31T03:32:07;15.40;;;9.10;;
26750;SDS011;14345;48.272;25.926;2023-10-31T03:34:35;16.63;;;8.65;;
26750;SDS011;14345;48.272;25.926;2023-10-31T03:37:01;15.45;;;8.48;;
26750;SDS011;14345;48.272;25.926;2023-10-31T03:39:27;14.77;;;8.85;;
26750;SDS011;14345;48.272;25.926;2023-10-31T03:41:53;18.65;;;8.57;;
26750;SDS011;14345;48.272;25.926;2023-10-31T03:44:19;17.85;;;9.30;;
26750;SDS011;14345;48.272;25.926;2023-10-31T03:46:45;15.90;;;9.18;;
26750;SDS011;14345;48.272;25.926;2023-10-31T03:49:11;14.27;;;8.65;;
26750;SDS011;14345;48.272;25.926;2023-10-31T03:51:37;15.48;;;9.27;;
26750;SDS011;14345;48.272;25.926;2023-10-31T03:54:03;15.95;;;8.57;;
26750;SDS011;14345;48.272;25.926;2023-10-31T03:56:29;14.63;;;8.68;;
26750;SDS011;14345;48.272;25.926;2023-10-31T03:58:55;16.20;;;8.93;;
26750;SDS011;14345;48.272;25.926;2023-10-31T04:01:21;17.10;;;8.90;;
26750;SDS011;14345;48.272;25.926;2023-10-31T04:03:47;14.88;;;8.52;;
26750;SDS011;14345;48.272;25.926;2023-10-31T04:06:13;14.63;;;9.20;;
26750;SDS011;14345;48.272;25.926;2023-10-31T04:08:39;14.85;;;8.27;;
26750;SDS011;14345;48.272;25.926;2023-10-31T04:11:05;16.70;;;9.15;;
26750;SDS011;14345;48.272;25.926;2023-10-31T04:13:31;15.73;;;8.57;;
26750;SDS011;14345;48.272;25.926;2023-10-31T04:15:57;13.82;;;8.57;;
26750;SDS011;14345;48.272;25.926;2023-10-31T04:18:23;16.92;;;8.60;;
26750;SDS011;14345;48.272;25.926;2023-10-31T04:20:49;17.25;;;9.02;;
26750;SDS011;14345;48.272;25.926;2023-10-31T04:23:15;14.85;;;8.18;;
26750;SDS011;14345;48.272;25.926;2023-10-31T04:25:41;15.82;;;8.68;;
26750;SDS011;14345;48.272;25.926;2023-10-31T04:28:07;13.82;;;8.38;;
26750;SDS011;14345;48.272;25.926;2023-10-31T04:30:33;17.48;;;8.32;;
26750;SDS011;14345;48.272;25.926;2023-10-31T04:32:59;14.82;;;8.07;;
26750;SDS011;14345;48.272;25.926;2023-10-31T04:35:25;15.40;;;8.40;;
26750;SDS011;14345;48.272;25.926;2023-10-31T04:37:51;12.60;;;7.53;;
26750;SDS011;14345;48.272;25.926;2023-10-31T04:40:17;15.50;;;8.48;;
26750;SDS011;14345;48.272;25.926;2023-10-31T04:42:45;18.38;;;9.48;;
26750;SDS011;14345;48.272;25.926;2023-10-31T04:45:12;16.20;;;9.40;;
26750;SDS011;14345;48.272;25.926;2023-10-31T04:47:38;16.42;;;8.77;;
26750;SDS011;14345;48.272;25.926;2023-10-31T04:50:04;20.95;;;11.10;;
26750;SDS011;14345;48.272;25.926;2023-10-31T04:52:30;15.38;;;10.05;;
26750;SDS011;14345;48.272;25.926;2023-10-31T04:54:56;18.42;;;9.30;;
26750;SDS011;14345;48.272;25.926;2023-10-31T04:57:23;20.08;;;12.15;;
26750;SDS011;14345;48.272;25.926;2023-10-31T04:59:49;22.33;;;13.90;;
26750;SDS011;14345;48.272;25.926;2023-10-31T05:02:15;23.88;;;13.65;;
26750;SDS011;14345;48.272;25.926;2023-10-31T05:04:41;25.52;;;15.10;;
26750;SDS011;14345;48.272;25.926;2023-10-31T05:07:07;32.30;;;16.13;;
26750;SDS011;14345;48.272;25.926;2023-10-31T05:09:33;31.30;;;19.00;;
26750;SDS011;14345;48.272;25.926;2023-10-31T05:11:59;38.60;;;21.30;;
26750;SDS011;14345;48.272;25.926;2023-10-31T05:14:25;34.90;;;19.05;;
26750;SDS011;14345;48.272;25.926;2023-10-31T05:16:51;33.67;;;18.17;;
26750;SDS011;14345;48.272;25.926;2023-10-31T05:19:17;39.25;;;18.98;;
26750;SDS011;14345;48.272;25.926;2023-10-31T05:21:43;29.85;;;17.10;;
26750;SDS011;14345;48.272;25.926;2023-10-31T05:24:09;34.45;;;16.42;;
26750;SDS011;14345;48.272;25.926;2023-10-31T05:26:35;34.00;;;15.77;;
26750;SDS011;14345;48.272;25.926;2023-10-31T05:29:02;32.60;;;16.33;;
26750;SDS011;14345;48.272;25.926;2023-10-31T05:31:28;39.67;;;16.75;;
26750;SDS011;14345;48.272;25.926;2023-10-31T05:33:54;38.70;;;18.80;;
26750;SDS011;14345;48.272;25.926;2023-10-31T05:36:20;33.47;;;17.77;;
26750;SDS011;14345;48.272;25.926;2023-10-31T05:38:46;30.30;;;15.98;;
26750;SDS011;14345;48.272;25.926;2023-10-31T05:41:13;26.55;;;15.70;;
26750;SDS011;14345;48.272;25.926;2023-10-31T05:43:39;29.08;;;15.75;;
26750;SDS011;14345;48.272;25.926;2023-10-31T05:46:05;34.30;;;15.98;;
26750;SDS011;14345;48.272;25.926;2023-10-31T05:48:31;31.63;;;16.25;;
26750;SDS011;14345;48.272;25.926;2023-10-31T05:50:58;32.22;;;15.68;;
26750;SDS011;14345;48.272;25.926;2023-10-31T05:53:24;27.83;;;14.88;;
26750;SDS011;14345;48.272;25.926;2023-10-31T05:55:50;32.13;;;14.35;;
26750;SDS011;14345;48.272;25.926;2023-10-31T05:58:16;32.60;;;14.25;;
26750;SDS011;14345;48.272;25.926;2023-10-31T06:00:42;20.23;;;11.85;;
26750;SDS011;14345;48.272;25.926;2023-10-31T06:03:08;18.45;;;10.55;;
26750;SDS011;14345;48.272;25.926;2023-10-31T06:05:34;21.27;;;11.05;;
26750;SDS011;14345;48.272;25.926;2023-10-31T06:08:00;25.00;;;11.40;;
26750;SDS011;14345;48.272;25.926;2023-10-31T06:10:26;19.35;;;10.63;;
26750;SDS011;14345;48.272;25.926;2023-10-31T06:12:52;20.20;;;10.25;;
26750;SDS011;14345;48.272;25.926;2023-10-31T06:15:18;20.67;;;10.40;;
26750;SDS011;14345;48.272;25.926;2023-10-31T06:17:44;17.90;;;9.55;;
26750;SDS011;14345;48.272;25.926;2023-10-31T06:20:10;21.63;;;10.07;;
26750;SDS011;14345;48.272;25.926;2023-10-31T06:22:36;20.35;;;9.02;;
26750;SDS011;14345;48.272;25.926;2023-10-31T06:25:02;18.75;;;9.55;;
26750;SDS011;14345;48.272;25.926;2023-10-31T06:27:28;21.20;;;9.60;;
26750;SDS011;14345;48.272;25.926;2023-10-31T06:29:54;16.23;;;8.27;;
26750;SDS011;14345;48.272;25.926;2023-10-31T06:32:20;21.17;;;9.15;;
26750;SDS011;14345;48.272;25.926;2023-10-31T06:34:46;21.52;;;9.48;;
26750;SDS011;14345;48.272;25.926;2023-10-31T06:37:12;20.33;;;9.25;;
26750;SDS011;14345;48.272;25.926;2023-10-31T06:39:38;22.42;;;9.20;;
26750;SDS011;14345;48.272;25.926;2023-10-31T06:42:04;18.98;;;10.00;;
26750;SDS011;14345;48.272;25.926;2023-10-31T06:44:30;22.52;;;9.85;;
26750;SDS011;14345;48.272;25.926;2023-10-31T06:46:56;20.05;;;9.73;;
26750;SDS011;14345;48.272;25.926;2023-10-31T06:49:22;16.15;;;9.68;;
26750;SDS011;14345;48.272;25.926;2023-10-31T06:51:49;18.90;;;10.13;;
26750;SDS011;14345;48.272;25.926;2023-10-31T06:54:15;22.60;;;10.20;;
26750;SDS011;14345;48.272;25.926;2023-10-31T06:56:41;19.38;;;9.55;;
26750;SDS011;14345;48.272;25.926;2023-10-31T06:59:06;26.52;;;11.18;;
26750;SDS011;14345;48.272;25.926;2023-10-31T07:01:33;19.85;;;10.23;;
26750;SDS011;14345;48.272;25.926;2023-10-31T07:03:59;23.55;;;11.75;;
26750;SDS011;14345;48.272;25.926;2023-10-31T07:06:25;24.25;;;12.68;;
26750;SDS011;14345;48.272;25.926;2023-10-31T07:08:51;29.45;;;14.07;;
26750;SDS011;14345;48.272;25.926;2023-10-31T07:11:17;29.10;;;13.50;;
26750;SDS011;14345;48.272;25.926;2023-10-31T07:13:43;24.55;;;11.75;;
26750;SDS011;14345;48.272;25.926;2023-10-31T07:16:09;23.65;;;12.27;;
26750;SDS011;14345;48.272;25.926;2023-10-31T07:18:35;26.50;;;13.02;;
26750;SDS011;14345;48.272;25.926;2023-10-31T07:21:01;28.15;;;11.82;;
26750;SDS011;14345;48.272;25.926;2023-10-31T07:23:27;22.45;;;12.50;;
26750;SDS011;14345;48.272;25.926;2023-10-31T07:25:53;24.10;;;12.40;;
26750;SDS011;14345;48.272;25.926;2023-10-31T07:28:19;26.38;;;12.93;;
26750;SDS011;14345;48.272;25.926;2023-10-31T07:30:45;25.92;;;11.85;;
26750;SDS011;14345;48.272;25.926;2023-10-31T07:33:11;27.45;;;11.93;;
26750;SDS011;14345;48.272;25.926;2023-10-31T07:35:37;21.48;;;11.30;;
26750;SDS011;14345;48.272;25.926;2023-10-31T07:38:03;21.17;;;11.70;;
26750;SDS011;14345;48.272;25.926;2023-10-31T07:40:29;26.88;;;12.10;;
26750;SDS011;14345;48.272;25.926;2023-10-31T07:42:55;23.10;;;12.77;;
26750;SDS011;14345;48.272;25.926;2023-10-31T07:45:21;27.50;;;11.65;;
26750;SDS011;14345;48.272;25.926;2023-10-31T07:47:47;26.73;;;12.60;;
26750;SDS011;14345;48.272;25.926;2023-10-31T07:50:13;28.25;;;12.60;;
26750;SDS011;14345;48.272;25.926;2023-10-31T07:52:39;25.38;;;11.93;;
26750;SDS011;14345;48.272;25.926;2023-10-31T07:55:05;24.52;;;12.15;;
26750;SDS011;14345;48.272;25.926;2023-10-31T07:57:31;22.98;;;11.90;;
26750;SDS011;14345;48.272;25.926;2023-10-31T07:59:57;22.85;;;12.25;;
26750;SDS011;14345;48.272;25.926;2023-10-31T08:02:23;22.52;;;12.15;;
26750;SDS011;14345;48.272;25.926;2023-10-31T08:04:49;29.55;;;12.40;;
26750;SDS011;14345;48.272;25.926;2023-10-31T08:07:15;22.05;;;11.27;;
26750;SDS011;14345;48.272;25.926;2023-10-31T08:09:41;23.20;;;11.20;;
26750;SDS011;14345;48.272;25.926;2023-10-31T08:12:08;23.20;;;11.32;;
26750;SDS011;14345;48.272;25.926;2023-10-31T08:14:34;25.60;;;12.95;;
26750;SDS011;14345;48.272;25.926;2023-10-31T08:17:00;23.73;;;11.93;;
26750;SDS011;14345;48.272;25.926;2023-10-31T08:19:26;18.80;;;10.25;;
26750;SDS011;14345;48.272;25.926;2023-10-31T08:21:52;21.77;;;10.73;;
26750;SDS011;14345;48.272;25.926;2023-10-31T08:24:18;24.08;;;12.27;;
26750;SDS011;14345;48.272;25.926;2023-10-31T08:26:44;21.27;;;10.80;;
26750;SDS011;14345;48.272;25.926;2023-10-31T08:29:10;20.98;;;10.38;;
26750;SDS011;14345;48.272;25.926;2023-10-31T08:31:36;23.42;;;11.35;;
26750;SDS011;14345;48.272;25.926;2023-10-31T08:34:03;21.77;;;11.23;;
26750;SDS011;14345;48.272;25.926;2023-10-31T08:36:29;21.38;;;11.13;;
26750;SDS011;14345;48.272;25.926;2023-10-31T08:38:55;24.08;;;11.55;;
26750;SDS011;14345;48.272;25.926;2023-10-31T08:41:21;19.50;;;10.70;;
26750;SDS011;14345;48.272;25.926;2023-10-31T08:43:47;23.10;;;11.20;;
26750;SDS011;14345;48.272;25.926;2023-10-31T08:46:13;25.65;;;12.10;;
26750;SDS011;14345;48.272;25.926;2023-10-31T08:48:39;22.60;;;11.52;;
26750;SDS011;14345;48.272;25.926;2023-10-31T08:51:05;23.42;;;12.50;;
26750;SDS011;14345;48.272;25.926;2023-10-31T08:53:31;22.40;;;11.32;;
26750;SDS011;14345;48.272;25.926;2023-10-31T08:55:57;21.85;;;12.30;;
26750;SDS011;14345;48.272;25.926;2023-10-31T08:58:23;28.40;;;14.52;;
26750;SDS011;14345;48.272;25.926;2023-10-31T09:00:49;29.23;;;12.68;;
26750;SDS011;14345;48.272;25.926;2023-10-31T09:03:15;27.60;;;13.68;;
26750;SDS011;14345;48.272;25.926;2023-10-31T09:05:41;25.08;;;11.82;;
26750;SDS011;14345;48.272;25.926;2023-10-31T09:08:09;25.40;;;12.82;;
26750;SDS011;14345;48.272;25.926;2023-10-31T09:10:36;26.85;;;13.13;;
26750;SDS011;14345;48.272;25.926;2023-10-31T09:13:03;27.55;;;12.55;;
26750;SDS011;14345;48.272;25.926;2023-10-31T09:15:30;21.10;;;11.43;;
26750;SDS011;14345;48.272;25.926;2023-10-31T09:17:55;22.65;;;11.65;;
26750;SDS011;14345;48.272;25.926;2023-10-31T09:20:21;22.67;;;12.40;;
26750;SDS011;14345;48.272;25.926;2023-10-31T09:22:47;22.00;;;11.63;;
26750;SDS011;14345;48.272;25.926;2023-10-31T09:25:13;25.65;;;11.93;;
26750;SDS011;14345;48.272;25.926;2023-10-31T09:27:40;24.95;;;11.93;;
26750;SDS011;14345;48.272;25.926;2023-10-31T09:30:07;22.70;;;12.45;;
26750;SDS011;14345;48.272;25.926;2023-10-31T09:32:33;27.05;;;13.30;;
26750;SDS011;14345;48.272;25.926;2023-10-31T09:34:59;24.83;;;13.02;;
26750;SDS011;14345;48.272;25.926;2023-10-31T09:37:25;25.88;;;13.30;;
26750;SDS011;14345;48.272;25.926;2023-10-31T09:39:51;28.85;;;14.25;;
26750;SDS011;14345;48.272;25.926;2023-10-31T09:42:17;30.88;;;15.73;;
26750;SDS011;14345;48.272;25.926;2023-10-31T09:44:43;29.88;;;15.23;;
26750;SDS011;14345;48.272;25.926;2023-10-31T09:47:09;33.72;;;15.43;;
26750;SDS011;14345;48.272;25.926;2023-10-31T09:49:35;29.17;;;15.80;;
26750;SDS011;14345;48.272;25.926;2023-10-31T09:52:01;29.33;;;14.95;;
26750;SDS011;14345;48.272;25.926;2023-10-31T09:54:28;35.65;;;16.40;;
26750;SDS011;14345;48.272;25.926;2023-10-31T09:56:55;29.75;;;15.00;;
26750;SDS011;14345;48.272;25.926;2023-10-31T09:59:21;26.77;;;14.68;;
26750;SDS011;14345;48.272;25.926;2023-10-31T10:01:47;30.98;;;14.98;;
26750;SDS011;14345;48.272;25.926;2023-10-31T10:04:13;33.15;;;16.85;;
26750;SDS011;14345;48.272;25.926;2023-10-31T10:06:40;30.75;;;15.43;;
26750;SDS011;14345;48.272;25.926;2023-10-31T10:09:06;29.42;;;15.43;;
26750;SDS011;14345;48.272;25.926;2023-10-31T10:11:33;35.33;;;15.25;;
26750;SDS011;14345;48.272;25.926;2023-10-31T10:13:59;35.70;;;16.17;;
26750;SDS011;14345;48.272;25.926;2023-10-31T10:16:29;33.40;;;15.73;;
26750;SDS011;14345;48.272;25.926;2023-10-31T10:18:55;28.40;;;15.43;;
26750;SDS011;14345;48.272;25.926;2023-10-31T10:21:21;31.10;;;15.98;;
26750;SDS011;14345;48.272;25.926;2023-10-31T10:23:47;34.45;;;15.15;;
26750;SDS011;14345;48.272;25.926;2023-10-31T10:26:14;31.48;;;15.27;;
26750;SDS011;14345;48.272;25.926;2023-10-31T10:28:40;31.35;;;14.48;;
26750;SDS011;14345;48.272;25.926;2023-10-31T10:31:06;27.02;;;14.55;;
26750;SDS011;14345;48.272;25.926;2023-10-31T10:33:33;25.52;;;14.48;;
26750;SDS011;14345;48.272;25.926;2023-10-31T10:35:59;30.75;;;15.00;;
26750;SDS011;14345;48.272;25.926;2023-10-31T10:38:25;29.70;;;14.25;;
26750;SDS011;14345;48.272;25.926;2023-10-31T10:40:53;25.98;;;12.10;;
26750;SDS011;14345;48.272;25.926;2023-10-31T10:45:45;21.85;;;11.75;;
26750;SDS011;14345;48.272;25.926;2023-10-31T10:48:13;23.48;;;12.10;;
26750;SDS011;14345;48.272;25.926;2023-10-31T10:50:42;24.27;;;11.63;;
26750;SDS011;14345;48.272;25.926;2023-10-31T10:55:37;25.77;;;13.10;;
26750;SDS011;14345;48.272;25.926;2023-10-31T10:58:05;22.63;;;11.15;;
26750;SDS011;14345;48.272;25.926;2023-10-31T11:00:33;23.27;;;12.07;;
26750;SDS011;14345;48.272;25.926;2023-10-31T11:02:59;23.70;;;13.07;;
26750;SDS011;14345;48.272;25.926;2023-10-31T11:05:26;21.95;;;12.23;;
26750;SDS011;14345;48.272;25.926;2023-10-31T11:07:53;21.70;;;11.75;;
26750;SDS011;14345;48.272;25.926;2023-10-31T11:10:20;26.23;;;13.27;;
26750;SDS011;14345;48.272;25.926;2023-10-31T11:12:47;28.52;;;12.75;;
26750;SDS011;14345;48.272;25.926;2023-10-31T11:15:15;23.65;;;11.82;;
26750;SDS011;14345;48.272;25.926;2023-10-31T11:17:42;26.48;;;12.65;;
26750;SDS011;14345;48.272;25.926;2023-10-31T11:20:09;24.25;;;12.70;;
26750;SDS011;14345;48.272;25.926;2023-10-31T11:22:39;27.17;;;12.38;;
26750;SDS011;14345;48.272;25.926;2023-10-31T11:25:09;24.45;;;12.40;;
26750;SDS011;14345;48.272;25.926;2023-10-31T11:27:35;23.27;;;11.48;;
26750;SDS011;14345;48.272;25.926;2023-10-31T11:30:04;25.02;;;11.85;;
26750;SDS011;14345;48.272;25.926;2023-10-31T11:32:31;20.48;;;10.63;;
26750;SDS011;14345;48.272;25.926;2023-10-31T11:34:58;24.00;;;11.57;;
26750;SDS011;14345;48.272;25.926;2023-10-31T11:37:32;23.95;;;10.93;;
26750;SDS011;14345;48.272;25.926;2023-10-31T11:42:49;21.58;;;10.38;;
26750;SDS011;14345;48.272;25.926;2023-10-31T11:45:35;19.88;;;10.00;;
26750;SDS011;14345;48.272;25.926;2023-10-31T11:48:02;22.92;;;10.98;;
26750;SDS011;14345;48.272;25.926;2023-10-31T11:50:32;22.05;;;9.98;;
26750;SDS011;14345;48.272;25.926;2023-10-31T11:52:59;21.50;;;9.48;;
26750;SDS011;14345;48.272;25.926;2023-10-31T11:55:25;19.63;;;9.73;;
26750;SDS011;14345;48.272;25.926;2023-10-31T11:57:51;19.73;;;9.48;;
26750;SDS011;14345;48.272;25.926;2023-10-31T12:00:20;17.35;;;9.57;;
26750;SDS011;14345;48.272;25.926;2023-10-31T12:02:57;18.83;;;9.68;;
26750;SDS011;14345;48.272;25.926;2023-10-31T12:05:23;14.38;;;8.50;;
26750;SDS011;14345;48.272;25.926;2023-10-31T12:07:49;18.10;;;9.15;;
26750;SDS011;14345;48.272;25.926;2023-10-31T12:10:21;16.30;;;8.82;;
26750;SDS011;14345;48.272;25.926;2023-10-31T12:12:48;19.23;;;10.15;;
26750;SDS011;14345;48.272;25.926;2023-10-31T12:15:15;24.92;;;9.60;;
26750;SDS011;14345;48.272;25.926;2023-10-31T12:17:41;18.45;;;9.15;;
26750;SDS011;14345;48.272;25.926;2023-10-31T12:20:07;18.67;;;8.88;;
26750;SDS011;14345;48.272;25.926;2023-10-31T12:22:33;17.70;;;9.10;;
26750;SDS011;14345;48.272;25.926;2023-10-31T12:25:03;18.17;;;8.82;;
26750;SDS011;14345;48.272;25.926;2023-10-31T12:27:45;20.15;;;9.55;;
26750;SDS011;14345;48.272;25.926;2023-10-31T12:30:21;21.52;;;10.73;;
26750;SDS011;14345;48.272;25.926;2023-10-31T12:32:56;21.92;;;10.50;;
26750;SDS011;14345;48.272;25.926;2023-10-31T12:35:23;21.55;;;10.50;;
26750;SDS011;14345;48.272;25.926;2023-10-31T12:37:49;18.00;;;9.77;;
26750;SDS011;14345;48.272;25.926;2023-10-31T12:40:19;20.27;;;10.55;;
26750;SDS011;14345;48.272;25.926;2023-10-31T12:42:46;25.33;;;9.93;;
26750;SDS011;14345;48.272;25.926;2023-10-31T12:45:12;27.92;;;10.82;;
26750;SDS011;14345;48.272;25.926;2023-10-31T12:47:39;21.23;;;10.68;;
26750;SDS011;14345;48.272;25.926;2023-10-31T12:50:06;18.60;;;9.52;;
26750;SDS011;14345;48.272;25.926;2023-10-31T12:52:52;17.98;;;9.63;;
26750;SDS011;14345;48.272;25.926;2023-10-31T12:55:22;20.90;;;10.63;;
26750;SDS011;14345;48.272;25.926;2023-10-31T12:57:49;19.95;;;11.25;;
26750;SDS011;14345;48.272;25.926;2023-10-31T13:00:16;16.10;;;9.07;;
26750;SDS011;14345;48.272;25.926;2023-10-31T13:02:49;26.97;;;11.27;;
26750;SDS011;14345;48.272;25.926;2023-10-31T13:05:15;24.50;;;11.02;;
26750;SDS011;14345;48.272;25.926;2023-10-31T13:07:48;22.60;;;10.45;;
26750;SDS011;14345;48.272;25.926;2023-10-31T13:10:15;23.63;;;11.50;;
26750;SDS011;14345;48.272;25.926;2023-10-31T13:12:47;27.42;;;11.10;;
26750;SDS011;14345;48.272;25.926;2023-10-31T13:15:13;21.33;;;10.88;;
26750;SDS011;14345;48.272;25.926;2023-10-31T13:17:40;20.27;;;10.88;;
26750;SDS011;14345;48.272;25.926;2023-10-31T13:20:09;25.05;;;10.30;;
26750;SDS011;14345;48.272;25.926;2023-10-31T13:22:36;21.17;;;10.73;;
26750;SDS011;14345;48.272;25.926;2023-10-31T13:25:03;21.55;;;10.90;;
26750;SDS011;14345;48.272;25.926;2023-10-31T13:27:33;23.23;;;11.90;;
26750;SDS011;14345;48.272;25.926;2023-10-31T13:30:00;25.10;;;11.48;;
26750;SDS011;14345;48.272;25.926;2023-10-31T13:32:26;23.00;;;11.90;;
26750;SDS011;14345;48.272;25.926;2023-10-31T13:34:52;22.27;;;11.15;;
26750;SDS011;14345;48.272;25.926;2023-10-31T13:37:18;23.92;;;11.52;;
26750;SDS011;14345;48.272;25.926;2023-10-31T13:39:44;22.55;;;11.02;;
26750;SDS011;14345;48.272;25.926;2023-10-31T13:42:10;21.45;;;11.73;;
26750;SDS011;14345;48.272;25.926;2023-10-31T13:44:37;21.48;;;11.15;;
26750;SDS011;14345;48.272;25.926;2023-10-31T13:47:03;26.75;;;11.82;;
26750;SDS011;14345;48.272;25.926;2023-10-31T13:49:29;22.73;;;11.52;;
26750;SDS011;14345;48.272;25.926;2023-10-31T13:51:55;24.40;;;11.80;;
26750;SDS011;14345;48.272;25.926;2023-10-31T13:54:21;22.80;;;11.43;;
26750;SDS011;14345;48.272;25.926;2023-10-31T13:56:47;25.02;;;12.02;;
26750;SDS011;14345;48.272;25.926;2023-10-31T13:59:13;26.42;;;12.48;;
26750;SDS011;14345;48.272;25.926;2023-10-31T14:01:39;31.05;;;12.88;;
26750;SDS011;14345;48.272;25.926;2023-10-31T14:04:06;28.13;;;13.48;;
26750;SDS011;14345;48.272;25.926;2023-10-31T14:06:32;28.77;;;13.48;;
26750;SDS011;14345;48.272;25.926;2023-10-31T14:08:58;30.40;;;14.07;;
26750;SDS011;14345;48.272;25.926;2023-10-31T14:11:24;27.63;;;14.52;;
26750;SDS011;14345;48.272;25.926;2023-10-31T14:13:50;33.08;;;14.48;;
26750;SDS011;14345;48.272;25.926;2023-10-31T14:16:17;28.08;;;14.60;;
26750;SDS011;14345;48.272;25.926;2023-10-31T14:18:44;35.80;;;16.02;;